sensor_id;sensor_type;location;lat;lon;timestamp;pressure;altitude;pressure_sealevel;temperature;humidity
57847;BME280;43675;50.030;21.952;2023-10-08T00:00:37;98276.94;;;11.05;86.94
57847;BME280;43675;50.030;21.952;2023-10-08T00:03:23;98268.88;;;11.05;87.07
57847;BME280;43675;50.030;21.952;2023-10-08T00:05:50;98265.70;;;11.07;87.06
57847;BME280;43675;50.030;21.952;2023-10-08T00:08:17;98269.45;;;11.09;87.18
57847;BME280;43675;50.030;21.952;2023-10-08T00:10:44;98272.05;;;11.11;87.20
57847;BME280;43675;50.030;21.952;2023-10-08T00:13:12;98273.39;;;11.13;87.31
57847;BME280;43675;50.030;21.952;2023-10-08T00:15:39;98276.45;;;11.15;87.33
57847;BME280;43675;50.030;21.952;2023-10-08T00:18:06;98276.38;;;11.12;87.33
57847;BME280;43675;50.030;21.952;2023-10-08T00:20:35;98276.10;;;11.08;87.46
57847;BME280;43675;50.030;21.952;2023-10-08T00:23:01;98271.86;;;11.02;87.48
57847;BME280;43675;50.030;21.952;2023-10-08T00:25:28;98271.39;;;10.97;87.71
57847;BME280;43675;50.030;21.952;2023-10-08T00:27:55;98277.48;;;10.94;87.96
57847;BME280;43675;50.030;21.952;2023-10-08T00:30:21;98276.52;;;10.92;87.99
57847;BME280;43675;50.030;21.952;2023-10-08T00:32:48;98283.14;;;10.88;88.16
57847;BME280;43675;50.030;21.952;2023-10-08T00:35:15;98283.95;;;10.86;88.34
57847;BME280;43675;50.030;21.952;2023-10-08T00:37:41;98287.70;;;10.86;88.49
57847;BME280;43675;50.030;21.952;2023-10-08T00:40:08;98290.77;;;10.87;88.55
57847;BME280;43675;50.030;21.952;2023-10-08T00:42:35;98295.57;;;10.88;88.65
57847;BME280;43675;50.030;21.952;2023-10-08T00:45:02;98300.61;;;10.88;88.82
57847;BME280;43675;50.030;21.952;2023-10-08T00:47:28;98301.08;;;10.87;88.93
57847;BME280;43675;50.030;21.952;2023-10-08T00:49:55;98302.27;;;10.87;88.95
57847;BME280;43675;50.030;21.952;2023-10-08T00:52:22;98305.54;;;10.87;88.83
57847;BME280;43675;50.030;21.952;2023-10-08T00:54:49;98307.40;;;10.86;88.96
57847;BME280;43675;50.030;21.952;2023-10-08T00:57:18;98306.21;;;10.86;89.04
57847;BME280;43675;50.030;21.952;2023-10-08T00:59:45;98306.98;;;10.88;89.07
57847;BME280;43675;50.030;21.952;2023-10-08T01:02:12;98303.79;;;10.88;89.18
57847;BME280;43675;50.030;21.952;2023-10-08T01:04:39;98306.10;;;10.88;89.25
57847;BME280;43675;50.030;21.952;2023-10-08T01:07:06;98307.58;;;10.89;89.26
57847;BME280;43675;50.030;21.952;2023-10-08T01:09:33;98310.38;;;10.89;89.32
57847;BME280;43675;50.030;21.952;2023-10-08T01:12:20;98311.25;;;10.89;89.29
57847;BME280;43675;50.030;21.952;2023-10-08T01:14:47;98323.83;;;10.90;89.38
57847;BME280;43675;50.030;21.952;2023-10-08T01:17:14;98327.71;;;10.89;89.44
57847;BME280;43675;50.030;21.952;2023-10-08T01:19:48;98330.22;;;10.88;89.55
57847;BME280;43675;50.030;21.952;2023-10-08T01:22:14;98331.66;;;10.88;89.53
57847;BME280;43675;50.030;21.952;2023-10-08T01:24:41;98334.27;;;10.87;89.59
57847;BME280;43675;50.030;21.952;2023-10-08T01:27:08;98334.38;;;10.83;89.61
57847;BME280;43675;50.030;21.952;2023-10-08T01:29:34;98334.61;;;10.80;89.60
57847;BME280;43675;50.030;21.952;2023-10-08T01:32:01;98331.13;;;10.77;89.67
57847;BME280;43675;50.030;21.952;2023-10-08T01:34:27;98329.71;;;10.75;89.76
57847;BME280;43675;50.030;21.952;2023-10-08T01:36:55;98320.83;;;10.72;89.90
57847;BME280;43675;50.030;21.952;2023-10-08T01:39:22;98315.48;;;10.71;89.89
57847;BME280;43675;50.030;21.952;2023-10-08T01:41:48;98315.00;;;10.69;89.91
57847;BME280;43675;50.030;21.952;2023-10-08T01:44:15;98311.70;;;10.65;90.02
57847;BME280;43675;50.030;21.952;2023-10-08T01:46:43;98314.26;;;10.62;89.99
57847;BME280;43675;50.030;21.952;2023-10-08T01:49:09;98329.84;;;10.60;90.18
57847;BME280;43675;50.030;21.952;2023-10-08T01:51:36;98337.77;;;10.64;90.12
57847;BME280;43675;50.030;21.952;2023-10-08T01:54:03;98340.27;;;10.68;89.94
57847;BME280;43675;50.030;21.952;2023-10-08T01:56:30;98337.14;;;10.65;90.01
57847;BME280;43675;50.030;21.952;2023-10-08T01:58:56;98334.50;;;10.64;90.08
57847;BME280;43675;50.030;21.952;2023-10-08T02:01:23;98338.80;;;10.59;90.14
57847;BME280;43675;50.030;21.952;2023-10-08T02:03:50;98340.20;;;10.54;90.28
57847;BME280;43675;50.030;21.952;2023-10-08T02:06:16;98338.05;;;10.50;90.40
57847;BME280;43675;50.030;21.952;2023-10-08T02:08:43;98330.08;;;10.46;90.42
57847;BME280;43675;50.030;21.952;2023-10-08T02:11:09;98326.24;;;10.41;90.56
57847;BME280;43675;50.030;21.952;2023-10-08T02:13:36;98324.60;;;10.39;90.66
57847;BME280;43675;50.030;21.952;2023-10-08T02:16:03;98327.25;;;10.39;90.80
57847;BME280;43675;50.030;21.952;2023-10-08T02:18:29;98335.29;;;10.40;90.88
57847;BME280;43675;50.030;21.952;2023-10-08T02:20:56;98334.10;;;10.39;90.80
57847;BME280;43675;50.030;21.952;2023-10-08T02:23:23;98333.83;;;10.40;90.77
57847;BME280;43675;50.030;21.952;2023-10-08T02:25:49;98326.48;;;10.41;90.83
57847;BME280;43675;50.030;21.952;2023-10-08T02:28:16;98332.73;;;10.44;90.93
57847;BME280;43675;50.030;21.952;2023-10-08T02:30:43;98335.85;;;10.47;90.77
57847;BME280;43675;50.030;21.952;2023-10-08T02:33:09;98336.30;;;10.47;90.85
57847;BME280;43675;50.030;21.952;2023-10-08T02:35:36;98342.69;;;10.48;90.82
57847;BME280;43675;50.030;21.952;2023-10-08T02:38:02;98346.84;;;10.49;90.80
57847;BME280;43675;50.030;21.952;2023-10-08T02:40:29;98344.48;;;10.50;90.90
57847;BME280;43675;50.030;21.952;2023-10-08T02:42:57;98347.67;;;10.48;90.65
57847;BME280;43675;50.030;21.952;2023-10-08T02:45:29;98348.45;;;10.46;90.88
57847;BME280;43675;50.030;21.952;2023-10-08T02:47:56;98351.95;;;10.45;90.89
57847;BME280;43675;50.030;21.952;2023-10-08T02:50:23;98356.94;;;10.45;90.90
57847;BME280;43675;50.030;21.952;2023-10-08T02:52:49;98355.52;;;10.44;91.04
57847;BME280;43675;50.030;21.952;2023-10-08T02:55:19;98360.33;;;10.42;91.08
57847;BME280;43675;50.030;21.952;2023-10-08T02:57:45;98358.65;;;10.36;90.80
57847;BME280;43675;50.030;21.952;2023-10-08T03:00:12;98360.46;;;10.27;90.64
57847;BME280;43675;50.030;21.952;2023-10-08T03:02:39;98365.46;;;10.16;90.53
57847;BME280;43675;50.030;21.952;2023-10-08T03:05:06;98372.53;;;10.04;90.42
57847;BME280;43675;50.030;21.952;2023-10-08T03:07:33;98369.13;;;9.92;90.53
57847;BME280;43675;50.030;21.952;2023-10-08T03:09:59;98374.80;;;9.85;90.73
57847;BME280;43675;50.030;21.952;2023-10-08T03:12:26;98386.30;;;9.78;90.71
57847;BME280;43675;50.030;21.952;2023-10-08T03:14:53;98389.23;;;9.72;90.83
57847;BME280;43675;50.030;21.952;2023-10-08T03:17:19;98376.72;;;9.68;90.96
57847;BME280;43675;50.030;21.952;2023-10-08T03:19:46;98355.27;;;9.64;90.87
57847;BME280;43675;50.030;21.952;2023-10-08T03:22:13;98330.46;;;9.64;91.01
57847;BME280;43675;50.030;21.952;2023-10-08T03:24:40;98341.83;;;9.65;91.06
57847;BME280;43675;50.030;21.952;2023-10-08T03:27:06;98356.13;;;9.64;91.13
57847;BME280;43675;50.030;21.952;2023-10-08T03:29:34;98362.52;;;9.63;91.07
57847;BME280;43675;50.030;21.952;2023-10-08T03:32:01;98364.38;;;9.63;91.01
57847;BME280;43675;50.030;21.952;2023-10-08T03:34:27;98372.27;;;9.61;90.79
57847;BME280;43675;50.030;21.952;2023-10-08T03:36:54;98367.87;;;9.61;90.96
57847;BME280;43675;50.030;21.952;2023-10-08T03:39:21;98366.89;;;9.59;91.10
57847;BME280;43675;50.030;21.952;2023-10-08T03:41:47;98354.52;;;9.59;91.11
57847;BME280;43675;50.030;21.952;2023-10-08T03:44:14;98346.44;;;9.59;90.95
57847;BME280;43675;50.030;21.952;2023-10-08T03:46:40;98344.46;;;9.60;91.04
57847;BME280;43675;50.030;21.952;2023-10-08T03:49:07;98334.52;;;9.60;90.79
57847;BME280;43675;50.030;21.952;2023-10-08T03:51:33;98337.82;;;9.60;90.99
57847;BME280;43675;50.030;21.952;2023-10-08T03:54:00;98357.61;;;9.59;90.86
57847;BME280;43675;50.030;21.952;2023-10-08T03:56:27;98361.84;;;9.54;90.67
57847;BME280;43675;50.030;21.952;2023-10-08T03:58:54;98372.13;;;9.51;90.57
57847;BME280;43675;50.030;21.952;2023-10-08T04:01:21;98372.02;;;9.46;90.95
57847;BME280;43675;50.030;21.952;2023-10-08T04:03:48;98358.52;;;9.43;90.91
57847;BME280;43675;50.030;21.952;2023-10-08T04:06:15;98361.83;;;9.43;91.00
57847;BME280;43675;50.030;21.952;2023-10-08T04:08:41;98371.05;;;9.43;91.11
57847;BME280;43675;50.030;21.952;2023-10-08T04:11:09;98383.58;;;9.45;91.10
57847;BME280;43675;50.030;21.952;2023-10-08T04:13:36;98392.79;;;9.46;91.04
57847;BME280;43675;50.030;21.952;2023-10-08T04:16:03;98396.91;;;9.48;91.09
57847;BME280;43675;50.030;21.952;2023-10-08T04:18:29;98401.02;;;9.49;90.97
57847;BME280;43675;50.030;21.952;2023-10-08T04:20:56;98404.14;;;9.50;90.86
57847;BME280;43675;50.030;21.952;2023-10-08T04:23:23;98405.70;;;9.50;91.00
57847;BME280;43675;50.030;21.952;2023-10-08T04:25:49;98415.36;;;9.49;90.90
57847;BME280;43675;50.030;21.952;2023-10-08T04:28:16;98427.12;;;9.47;90.92
57847;BME280;43675;50.030;21.952;2023-10-08T04:30:43;98433.68;;;9.45;90.87
57847;BME280;43675;50.030;21.952;2023-10-08T04:33:09;98434.77;;;9.42;90.94
57847;BME280;43675;50.030;21.952;2023-10-08T04:35:37;98441.08;;;9.39;90.94
57847;BME280;43675;50.030;21.952;2023-10-08T04:38:04;98457.58;;;9.37;90.93
57847;BME280;43675;50.030;21.952;2023-10-08T04:40:31;98463.67;;;9.36;91.11
57847;BME280;43675;50.030;21.952;2023-10-08T04:42:58;98465.61;;;9.36;91.17
57847;BME280;43675;50.030;21.952;2023-10-08T04:45:24;98474.96;;;9.38;91.33
57847;BME280;43675;50.030;21.952;2023-10-08T04:47:51;98479.36;;;9.40;91.44
57847;BME280;43675;50.030;21.952;2023-10-08T04:50:17;98482.91;;;9.39;91.40
57847;BME280;43675;50.030;21.952;2023-10-08T04:52:44;98473.95;;;9.39;91.30
57847;BME280;43675;50.030;21.952;2023-10-08T04:55:11;98462.66;;;9.40;91.51
57847;BME280;43675;50.030;21.952;2023-10-08T04:57:38;98462.61;;;9.42;91.35
57847;BME280;43675;50.030;21.952;2023-10-08T05:00:05;98465.98;;;9.42;91.31
57847;BME280;43675;50.030;21.952;2023-10-08T05:02:31;98459.42;;;9.37;91.15
57847;BME280;43675;50.030;21.952;2023-10-08T05:04:58;98464.88;;;9.34;91.17
57847;BME280;43675;50.030;21.952;2023-10-08T05:07:25;98472.88;;;9.30;90.98
57847;BME280;43675;50.030;21.952;2023-10-08T05:09:52;98490.52;;;9.28;91.17
57847;BME280;43675;50.030;21.952;2023-10-08T05:12:19;98500.73;;;9.27;91.32
57847;BME280;43675;50.030;21.952;2023-10-08T05:14:45;98500.02;;;9.27;91.27
57847;BME280;43675;50.030;21.952;2023-10-08T05:17:12;98496.32;;;9.27;91.48
57847;BME280;43675;50.030;21.952;2023-10-08T05:19:40;98500.77;;;9.30;91.32
57847;BME280;43675;50.030;21.952;2023-10-08T05:22:10;98516.50;;;9.33;91.66
57847;BME280;43675;50.030;21.952;2023-10-08T05:24:37;98531.25;;;9.37;91.31
57847;BME280;43675;50.030;21.952;2023-10-08T05:27:04;98533.50;;;9.37;91.42
57847;BME280;43675;50.030;21.952;2023-10-08T05:29:31;98535.88;;;9.37;91.52
57847;BME280;43675;50.030;21.952;2023-10-08T05:31:57;98527.33;;;9.38;91.45
57847;BME280;43675;50.030;21.952;2023-10-08T05:34:24;98547.31;;;9.38;91.44
57847;BME280;43675;50.030;21.952;2023-10-08T05:36:51;98557.52;;;9.39;91.57
57847;BME280;43675;50.030;21.952;2023-10-08T05:39:17;98559.70;;;9.40;91.44
57847;BME280;43675;50.030;21.952;2023-10-08T05:41:44;98558.84;;;9.39;91.52
57847;BME280;43675;50.030;21.952;2023-10-08T05:44:10;98581.99;;;9.40;91.50
57847;BME280;43675;50.030;21.952;2023-10-08T05:46:37;98585.96;;;9.37;91.49
57847;BME280;43675;50.030;21.952;2023-10-08T05:49:03;98579.67;;;9.35;91.41
57847;BME280;43675;50.030;21.952;2023-10-08T05:51:31;98576.70;;;9.36;91.61
57847;BME280;43675;50.030;21.952;2023-10-08T05:53:58;98564.09;;;9.38;91.69
57847;BME280;43675;50.030;21.952;2023-10-08T05:56:24;98560.84;;;9.46;91.47
57847;BME280;43675;50.030;21.952;2023-10-08T05:58:51;98584.56;;;9.57;91.29
57847;BME280;43675;50.030;21.952;2023-10-08T06:01:18;98601.56;;;9.64;91.19
57847;BME280;43675;50.030;21.952;2023-10-08T06:03:44;98602.73;;;9.65;91.07
57847;BME280;43675;50.030;21.952;2023-10-08T06:06:11;98600.00;;;9.63;91.19
57847;BME280;43675;50.030;21.952;2023-10-08T06:08:38;98590.69;;;9.60;91.18
57847;BME280;43675;50.030;21.952;2023-10-08T06:11:05;98590.81;;;9.59;91.15
57847;BME280;43675;50.030;21.952;2023-10-08T06:13:32;98602.20;;;9.61;90.99
57847;BME280;43675;50.030;21.952;2023-10-08T06:15:58;98618.84;;;9.66;90.91
57847;BME280;43675;50.030;21.952;2023-10-08T06:18:26;98621.59;;;9.72;90.69
57847;BME280;43675;50.030;21.952;2023-10-08T06:20:58;98627.80;;;9.72;90.52
57847;BME280;43675;50.030;21.952;2023-10-08T06:23:26;98624.35;;;9.71;90.43
57847;BME280;43675;50.030;21.952;2023-10-08T06:25:54;98623.38;;;9.74;90.33
57847;BME280;43675;50.030;21.952;2023-10-08T06:28:20;98629.94;;;9.73;90.38
57847;BME280;43675;50.030;21.952;2023-10-08T06:30:48;98628.67;;;9.71;90.17
57847;BME280;43675;50.030;21.952;2023-10-08T06:33:15;98634.90;;;9.72;90.29
57847;BME280;43675;50.030;21.952;2023-10-08T06:35:42;98650.27;;;9.73;90.20
57847;BME280;43675;50.030;21.952;2023-10-08T06:38:08;98664.08;;;9.73;90.12
57847;BME280;43675;50.030;21.952;2023-10-08T06:40:36;98661.11;;;9.73;90.22
57847;BME280;43675;50.030;21.952;2023-10-08T06:43:04;98657.25;;;9.69;90.21
57847;BME280;43675;50.030;21.952;2023-10-08T06:45:31;98669.09;;;9.64;90.38
57847;BME280;43675;50.030;21.952;2023-10-08T06:47:57;98669.25;;;9.63;90.23
57847;BME280;43675;50.030;21.952;2023-10-08T06:50:24;98667.76;;;9.66;90.36
57847;BME280;43675;50.030;21.952;2023-10-08T06:52:50;98681.33;;;9.68;90.44
57847;BME280;43675;50.030;21.952;2023-10-08T06:55:17;98692.66;;;9.69;90.41
57847;BME280;43675;50.030;21.952;2023-10-08T06:57:43;98691.05;;;9.71;90.40
57847;BME280;43675;50.030;21.952;2023-10-08T07:00:10;98698.10;;;9.71;90.19
57847;BME280;43675;50.030;21.952;2023-10-08T07:02:37;98695.74;;;9.73;90.30
57847;BME280;43675;50.030;21.952;2023-10-08T07:05:04;98706.55;;;9.73;90.30
57847;BME280;43675;50.030;21.952;2023-10-08T07:07:31;98713.73;;;9.72;90.30
57847;BME280;43675;50.030;21.952;2023-10-08T07:09:57;98716.16;;;9.71;90.24
57847;BME280;43675;50.030;21.952;2023-10-08T07:12:24;98712.71;;;9.65;90.37
57847;BME280;43675;50.030;21.952;2023-10-08T07:14:51;98712.91;;;9.57;90.39
57847;BME280;43675;50.030;21.952;2023-10-08T07:17:17;98714.81;;;9.51;90.62
57847;BME280;43675;50.030;21.952;2023-10-08T07:19:44;98719.35;;;9.48;90.60
57847;BME280;43675;50.030;21.952;2023-10-08T07:22:10;98723.96;;;9.51;90.98
57847;BME280;43675;50.030;21.952;2023-10-08T07:24:37;98722.69;;;9.60;91.10
57847;BME280;43675;50.030;21.952;2023-10-08T07:27:04;98727.17;;;9.66;91.20
57847;BME280;43675;50.030;21.952;2023-10-08T07:29:30;98724.77;;;9.68;91.02
57847;BME280;43675;50.030;21.952;2023-10-08T07:31:57;98728.91;;;9.69;90.80
57847;BME280;43675;50.030;21.952;2023-10-08T07:34:23;98725.23;;;9.73;91.09
57847;BME280;43675;50.030;21.952;2023-10-08T07:36:50;98722.30;;;9.83;91.32
57847;BME280;43675;50.030;21.952;2023-10-08T07:39:21;98723.56;;;9.92;91.28
57847;BME280;43675;50.030;21.952;2023-10-08T07:41:49;98735.52;;;10.07;91.17
57847;BME280;43675;50.030;21.952;2023-10-08T07:44:15;98737.71;;;10.16;90.98
57847;BME280;43675;50.030;21.952;2023-10-08T07:46:42;98738.30;;;10.18;90.73
57847;BME280;43675;50.030;21.952;2023-10-08T07:49:09;98737.66;;;10.23;90.63
57847;BME280;43675;50.030;21.952;2023-10-08T07:51:35;98738.55;;;10.30;90.56
57847;BME280;43675;50.030;21.952;2023-10-08T07:54:02;98739.95;;;10.39;90.36
57847;BME280;43675;50.030;21.952;2023-10-08T07:56:29;98741.83;;;10.50;90.11
57847;BME280;43675;50.030;21.952;2023-10-08T07:58:55;98739.31;;;10.67;90.09
57847;BME280;43675;50.030;21.952;2023-10-08T08:01:23;98748.74;;;10.83;89.46
57847;BME280;43675;50.030;21.952;2023-10-08T08:03:50;98755.14;;;10.92;88.96
57847;BME280;43675;50.030;21.952;2023-10-08T08:06:17;98761.15;;;10.95;88.33
57847;BME280;43675;50.030;21.952;2023-10-08T08:08:43;98767.54;;;10.92;87.89
57847;BME280;43675;50.030;21.952;2023-10-08T08:11:10;98765.63;;;10.82;87.16
57847;BME280;43675;50.030;21.952;2023-10-08T08:13:41;98775.56;;;10.69;86.76
57847;BME280;43675;50.030;21.952;2023-10-08T08:16:09;98780.02;;;10.58;86.75
57847;BME280;43675;50.030;21.952;2023-10-08T08:18:37;98780.30;;;10.52;86.73
57847;BME280;43675;50.030;21.952;2023-10-08T08:21:08;98789.14;;;10.50;86.78
57847;BME280;43675;50.030;21.952;2023-10-08T08:23:35;98792.04;;;10.58;87.04
57847;BME280;43675;50.030;21.952;2023-10-08T08:26:01;98797.14;;;10.65;86.65
57847;BME280;43675;50.030;21.952;2023-10-08T08:28:28;98799.68;;;10.68;86.25
57847;BME280;43675;50.030;21.952;2023-10-08T08:30:54;98802.91;;;10.84;86.56
57847;BME280;43675;50.030;21.952;2023-10-08T08:33:21;98802.84;;;11.11;86.51
57847;BME280;43675;50.030;21.952;2023-10-08T08:35:58;98805.76;;;11.36;85.75
57847;BME280;43675;50.030;21.952;2023-10-08T08:38:25;98808.73;;;11.53;84.34
57847;BME280;43675;50.030;21.952;2023-10-08T08:40:51;98806.82;;;11.69;83.58
57847;BME280;43675;50.030;21.952;2023-10-08T08:43:27;98811.39;;;11.76;82.02
57847;BME280;43675;50.030;21.952;2023-10-08T08:45:54;98814.90;;;11.80;81.01
57847;BME280;43675;50.030;21.952;2023-10-08T08:48:21;98814.13;;;11.75;79.81
57847;BME280;43675;50.030;21.952;2023-10-08T08:50:48;98822.94;;;11.71;79.26
57847;BME280;43675;50.030;21.952;2023-10-08T08:53:15;98825.95;;;11.65;78.45
57847;BME280;43675;50.030;21.952;2023-10-08T08:55:42;98828.54;;;11.54;77.37
57847;BME280;43675;50.030;21.952;2023-10-08T08:58:08;98833.02;;;11.40;76.73
57847;BME280;43675;50.030;21.952;2023-10-08T09:00:36;98836.16;;;11.24;75.92
57847;BME280;43675;50.030;21.952;2023-10-08T09:03:02;98841.35;;;11.10;75.40
57847;BME280;43675;50.030;21.952;2023-10-08T09:05:29;98850.83;;;10.99;74.90
57847;BME280;43675;50.030;21.952;2023-10-08T09:08:03;98851.67;;;10.90;74.65
57847;BME280;43675;50.030;21.952;2023-10-08T09:10:32;98855.89;;;10.82;74.09
57847;BME280;43675;50.030;21.952;2023-10-08T09:12:59;98857.58;;;10.84;73.76
57847;BME280;43675;50.030;21.952;2023-10-08T09:15:26;98854.05;;;10.97;73.66
57847;BME280;43675;50.030;21.952;2023-10-08T09:17:54;98855.55;;;11.15;73.05
57847;BME280;43675;50.030;21.952;2023-10-08T09:20:21;98852.48;;;11.31;72.15
57847;BME280;43675;50.030;21.952;2023-10-08T09:23:11;98849.02;;;11.48;71.72
57847;BME280;43675;50.030;21.952;2023-10-08T09:25:44;98843.51;;;11.84;72.03
57847;BME280;43675;50.030;21.952;2023-10-08T09:28:11;98839.70;;;12.23;71.12
57847;BME280;43675;50.030;21.952;2023-10-08T09:30:39;98843.09;;;12.53;70.26
57847;BME280;43675;50.030;21.952;2023-10-08T09:33:11;98845.88;;;12.56;68.59
57847;BME280;43675;50.030;21.952;2023-10-08T09:35:38;98849.02;;;12.34;67.85
57847;BME280;43675;50.030;21.952;2023-10-08T09:38:07;98854.83;;;12.07;67.47
57847;BME280;43675;50.030;21.952;2023-10-08T09:40:33;98857.30;;;11.81;66.57
57847;BME280;43675;50.030;21.952;2023-10-08T09:43:00;98856.39;;;11.59;66.64
57847;BME280;43675;50.030;21.952;2023-10-08T09:45:27;98859.06;;;11.38;66.74
57847;BME280;43675;50.030;21.952;2023-10-08T09:47:55;98858.38;;;11.19;66.75
57847;BME280;43675;50.030;21.952;2023-10-08T09:50:29;98858.64;;;11.07;67.04
57847;BME280;43675;50.030;21.952;2023-10-08T09:53:12;98860.84;;;11.03;67.64
57847;BME280;43675;50.030;21.952;2023-10-08T09:55:44;98863.02;;;11.11;66.47
57847;BME280;43675;50.030;21.952;2023-10-08T09:58:11;98861.83;;;11.27;64.98
57847;BME280;43675;50.030;21.952;2023-10-08T10:00:39;98862.36;;;11.42;63.23
57847;BME280;43675;50.030;21.952;2023-10-08T10:03:06;98868.26;;;11.57;62.41
57847;BME280;43675;50.030;21.952;2023-10-08T10:05:33;98867.15;;;11.72;61.79
57847;BME280;43675;50.030;21.952;2023-10-08T10:07:59;98869.53;;;11.90;61.97
57847;BME280;43675;50.030;21.952;2023-10-08T10:10:31;98874.63;;;12.04;60.73
57847;BME280;43675;50.030;21.952;2023-10-08T10:13:03;98868.42;;;12.10;60.56
57847;BME280;43675;50.030;21.952;2023-10-08T10:15:32;98862.45;;;12.26;60.30
57847;BME280;43675;50.030;21.952;2023-10-08T10:18:29;98867.00;;;12.39;59.49
57847;BME280;43675;50.030;21.952;2023-10-08T10:23:47;98876.73;;;12.60;57.27
57847;BME280;43675;50.030;21.952;2023-10-08T10:31:35;98877.98;;;12.67;56.03
57847;BME280;43675;50.030;21.952;2023-10-08T10:34:08;98882.34;;;12.87;55.27
57847;BME280;43675;50.030;21.952;2023-10-08T10:36:37;98875.46;;;12.94;54.13
57847;BME280;43675;50.030;21.952;2023-10-08T10:39:04;98879.26;;;12.99;54.03
57847;BME280;43675;50.030;21.952;2023-10-08T10:41:30;98878.94;;;12.99;53.91
57847;BME280;43675;50.030;21.952;2023-10-08T10:43:57;98872.94;;;13.04;53.97
57847;BME280;43675;50.030;21.952;2023-10-08T10:46:24;98875.55;;;13.20;54.79
57847;BME280;43675;50.030;21.952;2023-10-08T10:48:50;98877.88;;;13.46;55.39
57847;BME280;43675;50.030;21.952;2023-10-08T10:51:17;98869.77;;;13.76;55.55
57847;BME280;43675;50.030;21.952;2023-10-08T10:53:43;98878.58;;;13.90;54.36
57847;BME280;43675;50.030;21.952;2023-10-08T10:56:13;98882.71;;;13.85;53.74
57847;BME280;43675;50.030;21.952;2023-10-08T10:58:41;98885.12;;;13.74;53.54
57847;BME280;43675;50.030;21.952;2023-10-08T11:01:08;98887.54;;;13.42;51.46
57847;BME280;43675;50.030;21.952;2023-10-08T11:03:34;98897.59;;;13.09;51.17
57847;BME280;43675;50.030;21.952;2023-10-08T11:06:01;98898.94;;;12.88;51.80
57847;BME280;43675;50.030;21.952;2023-10-08T11:08:28;98898.91;;;12.75;52.10
57847;BME280;43675;50.030;21.952;2023-10-08T11:10:56;98902.84;;;12.71;52.32
57847;BME280;43675;50.030;21.952;2023-10-08T11:13:24;98900.63;;;12.78;52.28
57847;BME280;43675;50.030;21.952;2023-10-08T11:15:51;98902.94;;;12.94;52.63
57847;BME280;43675;50.030;21.952;2023-10-08T11:18:22;98913.47;;;13.10;52.20
57847;BME280;43675;50.030;21.952;2023-10-08T11:20:50;98901.44;;;13.19;51.56
57847;BME280;43675;50.030;21.952;2023-10-08T11:23:40;98909.40;;;13.18;50.46
57847;BME280;43675;50.030;21.952;2023-10-08T11:26:07;98913.41;;;13.12;49.22
57847;BME280;43675;50.030;21.952;2023-10-08T11:28:36;98917.22;;;12.99;46.73
57847;BME280;43675;50.030;21.952;2023-10-08T11:31:04;98925.09;;;12.77;45.11
57847;BME280;43675;50.030;21.952;2023-10-08T11:33:30;98919.92;;;12.54;44.45
57847;BME280;43675;50.030;21.952;2023-10-08T11:36:07;98916.11;;;12.40;44.80
57847;BME280;43675;50.030;21.952;2023-10-08T11:38:40;98923.36;;;12.34;45.44
57847;BME280;43675;50.030;21.952;2023-10-08T11:41:17;98924.90;;;12.34;45.51
57847;BME280;43675;50.030;21.952;2023-10-08T11:43:44;98924.89;;;12.35;46.15
57847;BME280;43675;50.030;21.952;2023-10-08T11:46:10;98931.90;;;12.39;46.19
57847;BME280;43675;50.030;21.952;2023-10-08T11:48:37;98938.43;;;12.39;45.30
57847;BME280;43675;50.030;21.952;2023-10-08T11:51:03;98944.33;;;12.32;42.56
57847;BME280;43675;50.030;21.952;2023-10-08T11:53:30;98946.62;;;12.20;41.60
57847;BME280;43675;50.030;21.952;2023-10-08T11:55:57;98949.66;;;12.12;41.92
57847;BME280;43675;50.030;21.952;2023-10-08T11:58:23;98957.60;;;12.11;42.29
57847;BME280;43675;50.030;21.952;2023-10-08T12:00:50;98952.54;;;12.07;42.89
57847;BME280;43675;50.030;21.952;2023-10-08T12:03:16;98957.47;;;12.08;43.53
57847;BME280;43675;50.030;21.952;2023-10-08T12:05:44;98957.65;;;12.10;44.19
57847;BME280;43675;50.030;21.952;2023-10-08T12:08:10;98957.25;;;12.13;44.39
57847;BME280;43675;50.030;21.952;2023-10-08T12:10:38;98960.16;;;12.13;44.07
57847;BME280;43675;50.030;21.952;2023-10-08T12:13:04;98957.94;;;12.11;43.65
57847;BME280;43675;50.030;21.952;2023-10-08T12:15:31;98956.95;;;12.11;43.74
57847;BME280;43675;50.030;21.952;2023-10-08T12:17:58;98963.58;;;12.15;43.84
57847;BME280;43675;50.030;21.952;2023-10-08T12:20:24;98959.21;;;12.18;43.79
57847;BME280;43675;50.030;21.952;2023-10-08T12:22:51;98959.16;;;12.25;44.45
57847;BME280;43675;50.030;21.952;2023-10-08T12:25:18;98969.47;;;12.35;45.01
57847;BME280;43675;50.030;21.952;2023-10-08T12:27:44;98972.95;;;12.40;44.65
57847;BME280;43675;50.030;21.952;2023-10-08T12:30:11;98971.05;;;12.36;44.80
57847;BME280;43675;50.030;21.952;2023-10-08T12:32:37;98973.96;;;12.28;43.96
57847;BME280;43675;50.030;21.952;2023-10-08T12:35:04;98977.28;;;12.15;42.62
57847;BME280;43675;50.030;21.952;2023-10-08T12:37:31;98977.31;;;11.97;41.46
57847;BME280;43675;50.030;21.952;2023-10-08T12:39:58;98985.58;;;11.89;41.44
57847;BME280;43675;50.030;21.952;2023-10-08T12:42:25;98987.64;;;11.83;40.29
57847;BME280;43675;50.030;21.952;2023-10-08T12:44:52;98986.85;;;11.76;40.03
57847;BME280;43675;50.030;21.952;2023-10-08T12:47:19;98988.43;;;11.73;40.17
57847;BME280;43675;50.030;21.952;2023-10-08T12:49:45;98989.55;;;11.71;40.04
57847;BME280;43675;50.030;21.952;2023-10-08T12:52:12;98992.64;;;11.69;39.95
57847;BME280;43675;50.030;21.952;2023-10-08T12:54:38;98989.80;;;11.69;40.24
57847;BME280;43675;50.030;21.952;2023-10-08T12:57:05;98997.20;;;11.70;40.71
57847;BME280;43675;50.030;21.952;2023-10-08T12:59:31;98995.39;;;11.68;40.86
57847;BME280;43675;50.030;21.952;2023-10-08T13:01:58;99004.29;;;11.68;41.64